createdAt,value
2022-11-17T00:00:40.071Z,17.08
2022-11-17T00:03:06.705Z,17.20
2022-11-17T00:05:35.532Z,18.63
2022-11-17T00:08:02.203Z,17.38
2022-11-17T00:10:33.620Z,18.10
2022-11-17T00:13:20.167Z,17.27
2022-11-17T00:15:47.560Z,17.33
2022-11-17T00:18:33.245Z,17.88
2022-11-17T00:21:19.084Z,19.08
2022-11-17T00:23:48.674Z,17.30
2022-11-17T00:26:35.580Z,16.55
2022-11-17T00:29:04.999Z,16.70
2022-11-17T00:31:51.718Z,16.23
2022-11-17T00:34:23.436Z,15.88
2022-11-17T00:36:52.765Z,16.98
2022-11-17T00:39:21.673Z,17.80
2022-11-17T00:41:48.344Z,17.67
2022-11-17T00:44:15.229Z,16.50
2022-11-17T00:46:43.122Z,18.67
2022-11-17T00:49:11.305Z,17.60
2022-11-17T00:51:38.887Z,17.13
2022-11-17T00:54:07.132Z,18.45
2022-11-17T00:56:34.713Z,18.10
2022-11-17T00:59:01.489Z,17.40
2022-11-17T01:01:30.077Z,18.15
2022-11-17T01:04:05.152Z,17.00
2022-11-17T01:06:43.469Z,17.80
2022-11-17T01:09:15.277Z,17.52
2022-11-17T01:11:44.035Z,17.73
2022-11-17T01:14:15.373Z,18.88
2022-11-17T01:16:42.581Z,18.73
2022-11-17T01:19:11.959Z,17.42
2022-11-17T01:21:39.336Z,17.90
2022-11-17T01:24:06.272Z,17.20
2022-11-17T01:26:36.329Z,17.25
2022-11-17T01:29:04.804Z,18.25
2022-11-17T01:31:34.663Z,17.58
2022-11-17T01:34:01.519Z,16.17
2022-11-17T01:36:54.708Z,16.33
2022-11-17T01:39:22.594Z,15.05
2022-11-17T01:41:50.060Z,17.50
2022-11-17T01:44:54.266Z,16.80
2022-11-17T01:47:23.048Z,16.23
2022-11-17T01:50:01.099Z,16.00
2022-11-17T01:52:29.434Z,16.67
2022-11-17T01:54:57.893Z,16.48
2022-11-17T01:57:30.441Z,16.48
2022-11-17T02:00:01.562Z,16.77
2022-11-17T02:02:31.546Z,16.67
2022-11-17T02:05:10.865Z,16.45
2022-11-17T02:07:40.718Z,16.13
2022-11-17T02:10:07.873Z,16.73
2022-11-17T02:12:36.220Z,18.65
2022-11-17T02:15:04.610Z,17.90
2022-11-17T02:17:40.768Z,17.17
2022-11-17T02:20:10.760Z,18.85
2022-11-17T02:22:49.284Z,18.10
2022-11-17T02:25:37.293Z,18.60
2022-11-17T02:28:15.410Z,18.73
2022-11-17T02:31:03.886Z,17.65
2022-11-17T02:33:55.796Z,17.27
2022-11-17T02:36:32.237Z,15.93
2022-11-17T02:39:18.171Z,16.20
2022-11-17T02:41:48.361Z,16.50
2022-11-17T02:44:22.776Z,15.63
2022-11-17T02:46:58.313Z,16.25
2022-11-17T02:49:53.540Z,16.90
2022-11-17T02:52:21.344Z,16.02
2022-11-17T02:54:47.926Z,16.35
2022-11-17T02:57:35.451Z,16.65
2022-11-17T03:00:08.371Z,16.60
2022-11-17T03:02:56.440Z,17.23
2022-11-17T03:05:36.289Z,17.48
2022-11-17T03:08:33.485Z,15.30
2022-11-17T03:11:03.553Z,16.30
2022-11-17T03:13:42.066Z,16.73
2022-11-17T03:16:27.114Z,16.75
2022-11-17T03:19:20.911Z,17.30
2022-11-17T03:21:55.762Z,17.42
2022-11-17T03:24:31.426Z,16.10
2022-11-17T03:27:08.404Z,15.98
2022-11-17T03:29:39.036Z,16.30
2022-11-17T03:32:07.919Z,17.13
2022-11-17T03:34:40.088Z,16.98
2022-11-17T03:37:10.443Z,16.38
2022-11-17T03:39:43.285Z,15.60
2022-11-17T03:42:25.947Z,15.98
2022-11-17T03:45:00.828Z,15.95
2022-11-17T03:47:29.586Z,15.20
2022-11-17T03:50:26.894Z,16.08
2022-11-17T03:52:54.110Z,16.98
2022-11-17T03:55:23.783Z,15.75
2022-11-17T03:58:25.702Z,16.58
2022-11-17T04:00:54.464Z,15.18
2022-11-17T04:03:23.049Z,15.75
2022-11-17T04:05:49.757Z,13.32
2022-11-17T04:08:16.870Z,14.23
2022-11-17T04:11:01.915Z,14.88
2022-11-17T04:13:46.871Z,13.82
2022-11-17T04:16:13.441Z,14.20
2022-11-17T04:18:39.992Z,13.98
2022-11-17T04:21:06.629Z,14.55
2022-11-17T04:23:33.471Z,14.90
2022-11-17T04:26:18.816Z,15.07
2022-11-17T04:28:48.645Z,15.35
2022-11-17T04:31:31.452Z,15.68
2022-11-17T04:34:05.607Z,15.68
2022-11-17T04:36:36.400Z,17.20
2022-11-17T04:39:03.863Z,15.95
2022-11-17T04:41:49.175Z,15.10
2022-11-17T04:44:17.638Z,16.08
2022-11-17T04:46:48.868Z,15.90
2022-11-17T04:49:17.384Z,14.68
2022-11-17T04:51:44.461Z,15.75
2022-11-17T04:54:13.289Z,15.30
2022-11-17T04:56:40.466Z,15.95
2022-11-17T04:59:08.208Z,15.75
2022-11-17T05:01:34.897Z,15.77
2022-11-17T05:04:07.955Z,14.98
2022-11-17T05:06:40.359Z,15.88
2022-11-17T05:09:14.168Z,15.65
2022-11-17T05:11:59.943Z,16.75
2022-11-17T05:14:28.134Z,17.17
2022-11-17T05:17:11.624Z,16.42
2022-11-17T05:19:40.794Z,16.42
2022-11-17T05:22:27.489Z,15.02
2022-11-17T05:24:54.704Z,13.38
2022-11-17T05:27:22.822Z,14.93
2022-11-17T05:29:49.497Z,14.00
2022-11-17T05:32:16.626Z,13.32
2022-11-17T05:34:43.418Z,14.20
2022-11-17T05:37:10.273Z,13.93
2022-11-17T05:39:37.084Z,13.52
2022-11-17T05:42:03.801Z,12.75
2022-11-17T05:44:30.431Z,12.90
2022-11-17T05:46:57.062Z,13.55
2022-11-17T05:49:24.111Z,13.07
2022-11-17T05:51:53.327Z,12.75
2022-11-17T05:54:20.433Z,13.43
2022-11-17T05:56:50.894Z,13.00
2022-11-17T05:59:29.645Z,13.13
2022-11-17T06:02:03.218Z,13.13
2022-11-17T06:04:30.624Z,13.82
2022-11-17T06:06:59.354Z,13.95
2022-11-17T06:09:28.716Z,13.88
2022-11-17T06:11:56.191Z,14.57
2022-11-17T06:14:25.182Z,14.23
2022-11-17T06:16:56.198Z,13.98
2022-11-17T06:19:29.653Z,13.88
2022-11-17T06:22:11.670Z,14.13
2022-11-17T06:27:07.515Z,14.73
2022-11-17T06:29:38.220Z,13.85
2022-11-17T06:32:07.638Z,13.80
2022-11-17T06:34:35.010Z,14.35
2022-11-17T06:37:01.605Z,14.13
2022-11-17T06:39:28.197Z,15.75
2022-11-17T06:41:54.742Z,14.68
2022-11-17T06:44:21.306Z,14.20
2022-11-17T06:46:49.382Z,15.18
2022-11-17T06:49:16.159Z,16.38
2022-11-17T06:51:45.342Z,14.88
2022-11-17T06:54:14.743Z,14.80
2022-11-17T06:56:42.246Z,15.30
2022-11-17T06:59:09.101Z,15.95
2022-11-17T07:01:37.382Z,16.67
2022-11-17T07:04:04.303Z,15.93
2022-11-17T07:06:31.915Z,15.63
2022-11-17T07:08:58.819Z,15.30
2022-11-17T07:11:25.648Z,15.05
2022-11-17T07:13:52.810Z,16.42
2022-11-17T07:16:24.049Z,15.75
2022-11-17T07:18:52.856Z,16.30
2022-11-17T07:21:19.875Z,17.40
2022-11-17T07:23:47.105Z,16.65
2022-11-17T07:26:14.420Z,16.00
2022-11-17T07:28:41.275Z,17.38
2022-11-17T07:31:09.323Z,16.90
2022-11-17T07:33:36.597Z,15.15
2022-11-17T07:36:05.632Z,15.85
2022-11-17T07:38:36.297Z,15.38
2022-11-17T07:41:04.123Z,15.82
2022-11-17T07:43:31.015Z,15.77
2022-11-17T07:45:57.851Z,15.70
2022-11-17T07:48:24.681Z,15.30
2022-11-17T07:50:51.372Z,15.27
2022-11-17T07:53:18.054Z,16.30
2022-11-17T07:55:45.038Z,15.75
2022-11-17T07:58:11.719Z,15.32
2022-11-17T08:00:38.470Z,14.95
2022-11-17T08:03:05.683Z,15.10
2022-11-17T08:05:41.800Z,14.55
2022-11-17T08:08:10.246Z,14.98
2022-11-17T08:10:36.972Z,15.10
2022-11-17T08:13:03.758Z,14.25
2022-11-17T08:15:31.614Z,14.63
2022-11-17T08:18:00.391Z,14.65
2022-11-17T08:20:29.380Z,14.55
2022-11-17T08:23:34.547Z,14.18
2022-11-17T08:26:02.355Z,14.38
2022-11-17T08:28:29.402Z,15.27
2022-11-17T08:30:56.114Z,14.60
2022-11-17T08:33:22.885Z,15.73
2022-11-17T08:35:49.516Z,16.08
2022-11-17T08:38:16.115Z,15.15
2022-11-17T08:40:43.089Z,15.13
2022-11-17T08:43:09.942Z,15.48
2022-11-17T08:45:36.552Z,15.80
2022-11-17T08:48:04.135Z,15.40
2022-11-17T08:50:30.816Z,16.75
2022-11-17T08:52:57.458Z,15.20
2022-11-17T08:55:26.393Z,17.50
2022-11-17T08:57:53.322Z,15.38
2022-11-17T09:00:21.761Z,16.63
2022-11-17T09:02:48.486Z,16.02
2022-11-17T09:05:15.464Z,16.15
2022-11-17T09:07:42.158Z,16.67
2022-11-17T09:10:11.077Z,16.55
2022-11-17T09:12:38.002Z,16.08
2022-11-17T09:15:05.559Z,15.73
2022-11-17T09:17:32.557Z,17.20
2022-11-17T09:19:59.294Z,16.55
2022-11-17T09:22:25.955Z,18.42
2022-11-17T09:24:52.580Z,18.95
2022-11-17T09:27:19.322Z,19.88
2022-11-17T09:29:45.932Z,19.05
2022-11-17T09:32:13.467Z,17.27
2022-11-17T09:34:40.132Z,17.98
2022-11-17T09:37:06.732Z,18.15
2022-11-17T09:39:33.358Z,17.83
2022-11-17T09:42:00.154Z,18.50
2022-11-17T09:44:26.779Z,17.58
2022-11-17T09:47:02.494Z,17.80
2022-11-17T09:49:58.114Z,17.88
2022-11-17T09:52:39.135Z,17.58
2022-11-17T09:55:08.405Z,18.00
2022-11-17T09:57:40.951Z,16.85
2022-11-17T10:00:14.882Z,17.45
2022-11-17T10:02:45.594Z,17.30
2022-11-17T10:05:26.283Z,17.13
2022-11-17T10:07:56.719Z,17.08
2022-11-17T10:10:35.378Z,16.10
2022-11-17T10:13:05.040Z,17.13
2022-11-17T10:15:55.442Z,17.05
2022-11-17T10:18:22.187Z,16.77
2022-11-17T10:20:49.069Z,16.95
2022-11-17T10:23:19.514Z,15.40
2022-11-17T10:25:48.547Z,16.35
2022-11-17T10:28:30.507Z,16.05
2022-11-17T10:31:23.425Z,15.98
2022-11-17T10:33:50.928Z,16.00
2022-11-17T10:36:22.593Z,16.23
2022-11-17T10:38:52.575Z,15.25
2022-11-17T10:41:25.544Z,16.30
2022-11-17T10:44:06.143Z,14.75
2022-11-17T10:46:43.242Z,15.18
2022-11-17T10:49:25.034Z,13.70
2022-11-17T10:52:11.902Z,13.90
2022-11-17T10:54:38.804Z,13.98
2022-11-17T10:57:08.873Z,13.10
2022-11-17T10:59:44.560Z,13.50
2022-11-17T11:02:29.007Z,12.43
2022-11-17T11:05:08.318Z,14.20
2022-11-17T11:07:35.796Z,13.85
2022-11-17T11:10:20.193Z,13.68
2022-11-17T11:12:59.318Z,14.07
2022-11-17T11:15:31.895Z,14.15
2022-11-17T11:20:38.738Z,13.90
2022-11-17T11:23:53.518Z,13.63
2022-11-17T11:26:30.861Z,13.45
2022-11-17T11:29:15.409Z,14.77
2022-11-17T11:32:00.511Z,14.40
2022-11-17T11:34:45.089Z,15.32
2022-11-17T11:37:13.473Z,15.57
2022-11-17T11:40:15.463Z,13.55
2022-11-17T11:42:58.829Z,13.93
2022-11-17T11:45:43.636Z,13.73
2022-11-17T11:48:16.518Z,13.52
2022-11-17T11:50:51.574Z,13.90
2022-11-17T11:53:27.110Z,13.35
2022-11-17T11:56:04.953Z,12.80
2022-11-17T11:58:31.586Z,13.13
2022-11-17T12:01:09.601Z,13.02
2022-11-17T12:04:07.202Z,13.32
2022-11-17T12:06:47.515Z,13.60
2022-11-17T12:09:38.772Z,13.32
2022-11-17T12:12:30.684Z,14.02
2022-11-17T12:15:30.797Z,14.38
2022-11-17T12:18:29.177Z,11.82
2022-11-17T12:21:05.622Z,13.98
2022-11-17T12:23:53.925Z,13.65
2022-11-17T12:26:32.012Z,13.13
2022-11-17T12:29:20.159Z,12.60
2022-11-17T12:31:51.728Z,12.00
2022-11-17T12:34:37.103Z,11.95
2022-11-17T12:37:13.179Z,12.45
2022-11-17T12:39:58.125Z,13.63
2022-11-17T12:42:26.410Z,12.45
2022-11-17T12:45:07.217Z,12.07
2022-11-17T12:47:39.556Z,12.15
2022-11-17T12:50:19.776Z,11.75
2022-11-17T12:53:13.363Z,11.20
2022-11-17T12:56:00.305Z,10.85
2022-11-17T12:58:42.015Z,11.25
2022-11-17T13:01:33.250Z,11.65
2022-11-17T13:04:11.176Z,10.65
2022-11-17T13:06:38.228Z,10.00
2022-11-17T13:09:08.120Z,10.98
2022-11-17T13:11:35.644Z,9.50
2022-11-17T13:14:15.326Z,11.23
2022-11-17T13:16:51.522Z,10.48
2022-11-17T13:19:36.585Z,10.30
2022-11-17T13:22:11.368Z,10.95
2022-11-17T13:24:41.474Z,10.30
2022-11-17T13:27:23.200Z,9.50
2022-11-17T13:29:51.667Z,10.13
2022-11-17T13:32:24.179Z,9.43
2022-11-17T13:34:53.897Z,10.40
2022-11-17T13:37:25.500Z,8.82
2022-11-17T13:40:19.914Z,9.87
2022-11-17T13:42:47.602Z,9.43
2022-11-17T13:45:15.758Z,8.57
2022-11-17T13:47:46.793Z,9.40
2022-11-17T13:50:33.693Z,8.75
2022-11-17T13:53:25.456Z,8.80
2022-11-17T13:55:53.252Z,9.02
2022-11-17T13:58:27.351Z,9.77
2022-11-17T14:00:57.629Z,9.05
2022-11-17T14:03:36.156Z,9.20
2022-11-17T14:06:10.395Z,9.10
2022-11-17T14:08:38.821Z,8.90
2022-11-17T14:11:13.626Z,9.73
2022-11-17T14:13:52.344Z,8.90
2022-11-17T14:16:26.670Z,9.27
2022-11-17T14:19:02.320Z,10.30
2022-11-17T14:21:31.551Z,9.32
2022-11-17T14:24:11.612Z,9.70
2022-11-17T14:26:44.792Z,8.88
2022-11-17T14:29:14.311Z,9.95
2022-11-17T14:31:43.282Z,9.95
2022-11-17T14:34:10.015Z,9.90
2022-11-17T14:36:39.226Z,10.07
2022-11-17T14:39:18.017Z,10.15
2022-11-17T14:41:47.932Z,9.88
2022-11-17T14:44:14.948Z,9.30
2022-11-17T14:46:42.413Z,9.95
2022-11-17T14:49:09.574Z,9.88
2022-11-17T14:51:36.291Z,9.80
2022-11-17T14:54:03.927Z,9.35
2022-11-17T15:31:55.075Z,10.88
2022-11-17T15:34:21.685Z,10.50
2022-11-17T15:36:48.714Z,11.00
2022-11-17T15:39:16.056Z,14.70
2022-11-17T15:41:43.294Z,14.35
2022-11-17T15:44:09.966Z,15.43
2022-11-17T15:46:36.905Z,14.85
2022-11-17T15:49:03.745Z,14.23
2022-11-17T15:51:30.574Z,13.35
2022-11-17T15:54:00.061Z,13.63
2022-11-17T15:56:28.838Z,13.57
2022-11-17T15:59:05.065Z,12.88
2022-11-17T16:01:33.354Z,12.45
2022-11-17T16:04:11.913Z,13.32
2022-11-17T16:06:41.162Z,13.02
2022-11-17T16:09:08.932Z,12.95
2022-11-17T16:11:36.696Z,13.25
2022-11-17T16:14:04.121Z,13.25
2022-11-17T16:16:34.524Z,14.45
2022-11-17T16:19:01.574Z,13.82
2022-11-17T16:21:28.516Z,14.50
2022-11-17T16:23:57.057Z,14.45
2022-11-17T16:26:26.064Z,14.93
2022-11-17T16:29:00.418Z,16.00
2022-11-17T16:31:29.502Z,15.60
2022-11-17T16:34:01.908Z,19.27
2022-11-17T16:36:36.268Z,20.08
2022-11-17T16:39:06.791Z,17.70
2022-11-17T16:41:36.344Z,16.73
2022-11-17T16:44:07.977Z,18.50
2022-11-17T16:46:35.284Z,16.88
2022-11-17T16:49:04.042Z,17.83
2022-11-17T16:51:31.410Z,16.85
2022-11-17T16:54:03.899Z,16.55
2022-11-17T16:56:31.856Z,17.25
2022-11-17T16:58:58.920Z,17.58
2022-11-17T17:01:27.840Z,15.82
2022-11-17T17:04:06.620Z,15.65
2022-11-17T17:06:34.048Z,15.60
2022-11-17T17:09:04.446Z,15.52
2022-11-17T17:11:32.846Z,16.15
2022-11-17T17:14:01.239Z,17.67
2022-11-17T17:16:27.889Z,17.27
2022-11-17T17:19:02.238Z,17.48
2022-11-17T17:21:29.956Z,18.15
2022-11-17T17:23:57.132Z,17.92
2022-11-17T17:26:26.166Z,17.90
2022-11-17T17:28:55.747Z,17.58
2022-11-17T17:31:24.282Z,17.42
2022-11-17T17:33:51.968Z,17.15
2022-11-17T17:36:21.615Z,17.17
2022-11-17T17:38:55.033Z,18.23
2022-11-17T17:41:26.757Z,17.85
2022-11-17T17:44:02.114Z,18.70
2022-11-17T17:46:30.669Z,17.70
2022-11-17T17:48:58.077Z,18.30
2022-11-17T17:51:26.784Z,18.80
2022-11-17T17:53:58.340Z,18.40
2022-11-17T17:56:25.413Z,18.35
2022-11-17T17:58:55.537Z,19.80
2022-11-17T18:01:27.255Z,18.63
2022-11-17T18:04:01.237Z,20.20
2022-11-17T18:06:27.978Z,20.27
2022-11-17T18:08:54.760Z,19.10
2022-11-17T18:11:21.450Z,18.65
2022-11-17T18:13:50.434Z,19.23
2022-11-17T18:16:23.755Z,18.77
2022-11-17T18:18:55.431Z,17.10
2022-11-17T18:21:22.093Z,17.17
2022-11-17T18:23:48.904Z,17.60
2022-11-17T18:26:19.731Z,17.25
2022-11-17T18:28:54.807Z,18.13
2022-11-17T18:31:24.123Z,16.77
2022-11-17T18:33:56.190Z,16.70
2022-11-17T18:36:22.925Z,16.13
2022-11-17T18:38:51.015Z,16.08
2022-11-17T18:41:19.000Z,16.77
2022-11-17T18:43:46.176Z,16.83
2022-11-17T18:46:14.906Z,17.63
2022-11-17T18:48:43.856Z,16.38
2022-11-17T18:51:20.980Z,16.15
2022-11-17T18:53:49.163Z,15.35
2022-11-17T18:56:17.758Z,17.08
2022-11-17T18:58:44.829Z,16.40
2022-11-17T19:01:14.687Z,16.45
2022-11-17T19:03:43.971Z,17.15
2022-11-17T19:06:12.262Z,17.33
2022-11-17T19:08:39.005Z,17.73
2022-11-17T19:11:07.689Z,16.75
2022-11-17T19:13:36.738Z,17.10
2022-11-17T19:16:07.872Z,17.15
2022-11-17T19:18:35.206Z,16.83
2022-11-17T19:21:09.678Z,16.35
2022-11-17T19:23:38.380Z,16.02
2022-11-17T19:26:07.308Z,16.63
2022-11-17T19:28:34.278Z,16.90
2022-11-17T19:31:05.316Z,17.23
2022-11-17T19:33:33.426Z,16.67
2022-11-17T19:36:30.238Z,16.80
2022-11-17T19:38:58.835Z,17.08
2022-11-17T19:41:29.856Z,16.48
2022-11-17T19:43:58.386Z,17.00
2022-11-17T19:46:26.847Z,18.35
2022-11-17T19:48:54.907Z,18.10
2022-11-17T19:51:23.914Z,17.52
2022-11-17T19:53:54.265Z,18.35
2022-11-17T19:56:22.075Z,20.17
2022-11-17T19:58:48.921Z,18.73
2022-11-17T20:01:18.347Z,19.67
2022-11-17T20:03:46.308Z,20.30
2022-11-17T20:06:15.964Z,18.85
2022-11-17T20:08:42.935Z,18.73
2022-11-17T20:11:15.541Z,17.58
2022-11-17T20:13:42.679Z,18.40
2022-11-17T20:16:18.537Z,18.27
2022-11-17T20:18:50.925Z,20.05
2022-11-17T20:21:18.566Z,18.83
2022-11-17T20:23:45.611Z,18.38
2022-11-17T20:26:15.330Z,19.67
2022-11-17T20:28:42.481Z,20.92
2022-11-17T20:31:14.305Z,23.65
2022-11-17T20:33:42.866Z,21.95
2022-11-17T20:36:21.617Z,20.17
2022-11-17T20:38:56.455Z,20.30
2022-11-17T20:41:24.304Z,20.02
2022-11-17T20:43:53.083Z,18.33
2022-11-17T20:46:20.433Z,17.63
2022-11-17T20:48:47.495Z,18.45
2022-11-17T20:51:19.301Z,20.30
2022-11-17T20:53:46.263Z,19.27
2022-11-17T20:56:16.124Z,18.92
2022-11-17T20:58:43.457Z,18.30
2022-11-17T21:01:19.348Z,18.13
2022-11-17T21:03:46.093Z,17.70
2022-11-17T21:06:14.027Z,18.70
2022-11-17T21:08:42.098Z,16.77
2022-11-17T21:11:11.348Z,18.90
2022-11-17T21:13:38.372Z,18.20
2022-11-17T21:16:12.474Z,17.45
2022-11-17T21:18:45.349Z,16.90
2022-11-17T21:21:12.509Z,18.73
2022-11-17T21:23:40.426Z,17.73
2022-11-17T21:26:14.282Z,17.95
2022-11-17T21:28:43.982Z,19.10
2022-11-17T21:31:13.170Z,17.77
2022-11-17T21:33:40.469Z,18.08
2022-11-17T21:36:13.094Z,18.50
2022-11-17T21:38:40.114Z,17.60
2022-11-17T21:41:10.675Z,18.25
2022-11-17T21:43:39.547Z,17.27
2022-11-17T21:46:09.274Z,17.75
2022-11-17T21:48:37.236Z,17.90
2022-11-17T21:51:05.642Z,18.30
2022-11-17T21:53:32.662Z,17.23
2022-11-17T21:56:03.762Z,16.48
2022-11-17T21:58:30.575Z,16.27
2022-11-17T22:00:57.560Z,15.93
2022-11-17T22:03:24.586Z,15.73
2022-11-17T22:05:52.366Z,16.52
2022-11-17T22:08:19.179Z,17.00
2022-11-17T22:10:45.777Z,17.15
2022-11-17T22:13:12.669Z,16.75
2022-11-17T22:15:39.353Z,17.08
2022-11-17T22:18:06.027Z,16.95
2022-11-17T22:20:32.619Z,16.35
2022-11-17T22:22:59.213Z,15.98
2022-11-17T22:25:44.056Z,16.95
2022-11-17T22:28:12.054Z,16.77
2022-11-17T22:30:39.386Z,16.67
2022-11-17T22:33:05.971Z,17.27
2022-11-17T22:35:32.588Z,18.50
2022-11-17T22:37:59.181Z,18.38
2022-11-17T22:40:25.807Z,18.17
2022-11-17T22:42:52.806Z,17.73
2022-11-17T22:45:19.539Z,17.00
2022-11-17T22:47:46.291Z,17.67
2022-11-17T22:50:13.137Z,16.80
2022-11-17T22:52:39.810Z,18.48
2022-11-17T22:55:06.704Z,18.75
2022-11-17T22:57:33.290Z,18.20
2022-11-17T22:59:59.901Z,17.48
2022-11-17T23:02:26.545Z,18.17
2022-11-17T23:04:53.455Z,18.33
2022-11-17T23:07:20.147Z,17.67
2022-11-17T23:09:46.855Z,17.90
2022-11-17T23:12:13.470Z,18.15
2022-11-17T23:14:40.073Z,17.75
2022-11-17T23:17:06.735Z,17.45
2022-11-17T23:19:33.305Z,16.77
2022-11-17T23:21:59.933Z,16.58
2022-11-17T23:24:26.495Z,17.50
2022-11-17T23:26:53.058Z,16.42
2022-11-17T23:29:19.861Z,16.60
2022-11-17T23:31:46.540Z,15.32
2022-11-17T23:34:13.196Z,17.67
2022-11-17T23:36:39.881Z,15.95
2022-11-17T23:39:06.924Z,16.92
2022-11-17T23:41:33.505Z,17.83
2022-11-17T23:44:00.125Z,16.90
2022-11-17T23:46:27.263Z,17.80
2022-11-17T23:48:56.208Z,17.13
2022-11-17T23:51:24.858Z,17.77
2022-11-17T23:53:51.784Z,16.60
2022-11-17T23:56:22.597Z,15.73
2022-11-17T23:58:50.862Z,17.20
